Time;durP1;ratioP1;P1;durP2;ratioP2;P2;SDS_P1;SDS_P2;PMS_P1;PMS_P2;Temp;Humidity;BMP_temperature;BMP_pressure;BME280_temperature;BME280_humidity;BME280_pressure;Samples;Min_cycle;Max_cycle;Signal;HPM_P1;HPM_P2
2021/05/18 00:00:32;;;;;;;;;;;9.10;99.90;;;;;;10493210;28;19959;-63
2021/05/18 00:05:34;;;;;;;;;;;10.90;99.90;;;;;;10497437;28;19961;-63
2021/05/18 00:16:08;;;;;;;;;;;11.00;99.90;;;;;;10394232;28;19924;-63
2021/05/18 00:21:09;;;;;;;;;;;11.10;99.90;;;;;;10496957;28;19924;-62
2021/05/18 00:26:12;;;;;;;;;;;11.10;99.90;;;;;;10496931;28;20379;-62
2021/05/18 00:31:13;;;;;;;;;;;11.10;99.90;;;;;;10496134;28;20383;-62
2021/05/18 00:36:14;;;;;;;;;;;9.60;99.90;;;;;;10496379;28;19928;-62
2021/05/18 00:41:16;;;;;;;;;;;10.90;99.90;;;;;;10495140;28;20027;-63
2021/05/18 00:46:18;;;;;;;;;;;10.80;99.90;;;;;;10494959;28;19928;-63
2021/05/18 00:51:19;;;;;;;;;;;10.70;99.90;;;;;;10491919;28;19931;-63
2021/05/18 00:56:33;;;;;;;;;;;10.60;99.90;;;;;;10493191;28;19967;-62
2021/05/18 01:01:34;;;;;;;;;;;10.50;99.90;;;;;;10495456;28;19924;-62
2021/05/18 01:06:35;;;;;;;;;;;10.50;99.90;;;;;;10491742;28;19983;-62
2021/05/18 01:11:38;;;;;;;;;;;11.30;99.90;;;;;;10491167;28;20689;-62
2021/05/18 01:16:43;;;;;;;;;;;10.50;99.90;;;;;;10490948;28;20015;-62
2021/05/18 01:21:45;;;;;;;;;;;10.50;99.90;;;;;;10493140;28;20331;-62
2021/05/18 01:26:47;;;;;;;;;;;10.40;99.90;;;;;;10493734;28;20288;-63
2021/05/18 01:31:48;;;;;;;;;;;10.40;99.90;;;;;;10494201;28;19924;-64
2021/05/18 01:36:50;;;;;;;;;;;10.40;99.90;;;;;;10493999;28;19924;-63
2021/05/18 01:47:11;;;;;;;;;;;10.30;99.90;;;;;;10493372;28;19924;-63
2021/05/18 01:52:13;;;;;;;;;;;10.20;99.90;;;;;;10493648;28;20004;-63
2021/05/18 01:57:19;;;;;;;;;;;9.60;99.90;;;;;;10493154;28;20011;-62
2021/05/18 02:02:20;;;;;;;;;;;10.00;99.90;;;;;;10492207;28;19935;-63
2021/05/18 02:07:24;;;;;;;;;;;10.00;99.90;;;;;;10494363;28;19999;-62
2021/05/18 02:12:25;;;;;;;;;;;8.50;99.90;;;;;;10494198;28;19999;-62
2021/05/18 02:17:30;;;;;;;;;;;10.00;99.90;;;;;;10493995;28;20012;-62
2021/05/18 02:27:54;;;;;;;;;;;10.00;99.90;;;;;;10493292;28;19928;-63
2021/05/18 02:32:55;;;;;;;;;;;10.10;99.90;;;;;;10493723;28;19920;-63
2021/05/18 02:37:57;;;;;;;;;;;10.10;99.90;;;;;;10493659;28;19920;-62
2021/05/18 02:42:58;;;;;;;;;;;10.10;99.90;;;;;;10493531;28;19928;-62
2021/05/18 02:53:19;;;;;;;;;;;10.10;99.90;;;;;;10493115;28;19928;-62
2021/05/18 02:58:21;;;;;;;;;;;10.10;99.90;;;;;;10492634;28;19924;-62
2021/05/18 03:03:22;;;;;;;;;;;10.10;99.90;;;;;;10493418;28;19920;-62
2021/05/18 03:08:24;;;;;;;;;;;10.10;99.90;;;;;;10492698;28;19943;-62
2021/05/18 03:13:25;;;;;;;;;;;10.10;99.90;;;;;;10492721;28;20007;-62
2021/05/18 03:18:26;;;;;;;;;;;10.10;99.90;;;;;;10492658;28;19969;-62
2021/05/18 03:23:28;;;;;;;;;;;10.00;99.90;;;;;;10493052;28;19924;-62
2021/05/18 03:28:29;;;;;;;;;;;9.90;99.90;;;;;;10492426;28;19924;-62
2021/05/18 03:38:54;;;;;;;;;;;9.80;99.90;;;;;;10500066;28;20352;-63
2021/05/18 03:44:00;;;;;;;;;;;9.80;99.90;;;;;;10500324;28;19960;-63
2021/05/18 03:54:26;;;;;;;;;;;8.60;99.90;;;;;;10497902;28;19928;-62
2021/05/18 04:04:50;;;;;;;;;;;9.90;99.90;;;;;;10498840;28;19928;-62
2021/05/18 04:10:14;;;;;;;;;;;10.00;99.90;;;;;;10499089;28;20034;-62
2021/05/18 04:20:51;;;;;;;;;;;10.10;99.90;;;;;;10497433;28;19916;-62
2021/05/18 04:42:19;;;;;;;;;;;10.30;99.90;;;;;;10497194;28;19920;-62
2021/05/18 04:52:50;;;;;;;;;;;10.30;99.90;;;;;;10495632;28;20376;-62
2021/05/18 05:03:49;;;;;;;;;;;10.10;99.90;;;;;;10494824;28;19924;-62
2021/05/18 05:08:55;;;;;;;;;;;10.60;99.90;;;;;;10495255;28;19924;-62
2021/05/18 05:19:17;;;;;;;;;;;10.60;99.90;;;;;;10494695;28;19925;-62
2021/05/18 05:24:18;;;;;;;;;;;10.60;99.90;;;;;;10495952;28;19942;-62
2021/05/18 05:29:20;;;;;;;;;;;10.50;99.90;;;;;;10489019;28;19932;-62
2021/05/18 05:34:21;;;;;;;;;;;10.50;99.90;;;;;;10492105;28;19962;-63
2021/05/18 05:39:23;;;;;;;;;;;10.60;99.90;;;;;;10491613;28;20014;-62
2021/05/18 05:44:25;;;;;;;;;;;10.60;99.90;;;;;;10492826;28;19982;-62
2021/05/18 05:49:26;;;;;;;;;;;10.80;99.90;;;;;;10495325;28;19925;-62
2021/05/18 05:54:27;;;;;;;;;;;10.80;99.90;;;;;;10495041;28;19977;-62
2021/05/18 05:59:29;;;;;;;;;;;11.00;99.90;;;;;;10493622;28;20571;-62
2021/05/18 06:04:30;;;;;;;;;;;11.00;99.90;;;;;;10494247;28;20042;-62
2021/05/18 06:09:32;;;;;;;;;;;11.20;99.90;;;;;;10494458;28;19931;-62
2021/05/18 06:14:42;;;;;;;;;;;11.40;99.90;;;;;;10491365;28;20066;-61
2021/05/18 06:46:20;;;;;;;;;;;14.80;99.90;;;;;;10490803;28;19928;-62
2021/05/18 06:51:21;;;;;;;;;;;14.40;99.90;;;;;;10491464;28;19927;-62
2021/05/18 06:56:31;;;;;;;;;;;15.10;99.90;;;;;;10491568;28;19921;-62
2021/05/18 07:01:33;;;;;;;;;;;15.10;99.90;;;;;;10490718;28;19928;-62
2021/05/18 07:06:42;;;;;;;;;;;15.60;99.90;;;;;;10491616;28;19964;-62
2021/05/18 07:11:43;;;;;;;;;;;16.70;99.90;;;;;;10503249;28;19924;-62
2021/05/18 07:16:45;;;;;;;;;;;16.90;99.90;;;;;;10504820;28;20011;-62
2021/05/18 07:21:47;;;;;;;;;;;16.70;99.90;;;;;;10502942;28;20356;-61
2021/05/18 07:26:49;;;;;;;;;;;21.10;95.20;;;;;;10502322;28;20357;-62
2021/05/18 07:31:52;;;;;;;;;;;20.40;96.80;;;;;;10503139;28;19924;-63
2021/05/18 07:36:53;;;;;;;;;;;21.90;93.00;;;;;;10502544;28;19920;-63
2021/05/18 07:41:54;;;;;;;;;;;22.00;90.50;;;;;;10502061;28;20019;-61
2021/05/18 07:46:56;;;;;;;;;;;23.50;82.90;;;;;;10502570;28;20391;-61
2021/05/18 08:08:06;;;;;;;;;;;29.70;50.80;;;;;;10500030;28;19924;-62
2021/05/18 08:13:07;;;;;;;;;;;30.80;48.70;;;;;;10502897;28;19980;-61
2021/05/18 08:18:17;;;;;;;;;;;31.40;48.70;;;;;;10503587;28;20568;-62
2021/05/18 09:47:06;;;;;;;;;;;28.30;38.40;;;;;;10493467;28;19924;-61
2021/05/18 10:22:22;;;;;;;;;;;29.00;34.40;;;;;;10489951;28;19999;-62
2021/05/18 10:38:31;;;;;;;;;;;27.20;33.50;;;;;;10488857;28;19908;-62
2021/05/18 10:43:33;;;;;;;;;;;27.70;35.70;;;;;;10488031;28;19971;-62
2021/05/18 10:48:53;;;;;;;;;;;27.20;36.90;;;;;;10488842;28;19956;-63
2021/05/18 10:54:07;;;;;;;;;;;26.70;38.60;;;;;;10488380;28;19931;-61
2021/05/18 10:59:17;;;;;;;;;;;26.80;38.80;;;;;;10488658;28;19922;-62
2021/05/18 11:04:18;;;;;;;;;;;25.90;37.30;;;;;;10488641;28;19930;-61
2021/05/18 11:09:19;;;;;;;;;;;26.70;37.50;;;;;;10490469;28;20184;-61
2021/05/18 11:14:31;;;;;;;;;;;26.70;36.30;;;;;;10490653;28;20338;-61
2021/05/18 11:19:33;;;;;;;;;;;26.70;35.10;;;;;;10491807;28;19924;-61
2021/05/18 11:24:46;;;;;;;;;;;27.10;35.90;;;;;;10490919;28;19924;-62
2021/05/18 11:29:48;;;;;;;;;;;27.20;33.80;;;;;;10490961;28;20018;-61
2021/05/18 11:34:57;;;;;;;;;;;27.10;34.60;;;;;;10490505;28;20226;-61
2021/05/18 11:40:11;;;;;;;;;;;26.60;33.60;;;;;;10489746;28;19974;-61
2021/05/18 11:45:15;;;;;;;;;;;27.10;33.80;;;;;;10489727;28;20043;-61
2021/05/18 11:50:17;;;;;;;;;;;26.90;34.40;;;;;;10490143;28;19920;-62
2021/05/18 11:55:23;;;;;;;;;;;26.60;35.60;;;;;;10491481;28;20007;-63
2021/05/18 12:00:30;;;;;;;;;;;26.40;36.00;;;;;;10498112;28;19931;-61
2021/05/18 12:05:32;;;;;;;;;;;25.60;37.10;;;;;;10496859;28;19963;-62
2021/05/18 12:10:35;;;;;;;;;;;25.10;37.50;;;;;;10498086;28;20509;-60
2021/05/18 12:15:37;;;;;;;;;;;25.10;38.50;;;;;;10497411;28;19920;-61
2021/05/18 12:20:39;;;;;;;;;;;24.50;39.00;;;;;;10497542;28;19960;-62
2021/05/18 12:25:40;;;;;;;;;;;23.90;41.00;;;;;;10497047;28;19920;-61
2021/05/18 12:30:44;;;;;;;;;;;24.10;40.10;;;;;;10496161;28;19931;-62
2021/05/18 12:35:45;;;;;;;;;;;24.00;39.60;;;;;;10495891;28;20398;-62
2021/05/18 12:40:46;;;;;;;;;;;24.10;40.70;;;;;;10495771;28;20031;-64
2021/05/18 12:46:05;;;;;;;;;;;24.50;40.50;;;;;;10496261;28;19925;-64
2021/05/18 12:51:16;;;;;;;;;;;24.90;39.00;;;;;;10495990;28;19920;-62
2021/05/18 12:56:27;;;;;;;;;;;24.70;38.80;;;;;;10496010;28;20376;-62
2021/05/18 13:01:39;;;;;;;;;;;23.90;39.90;;;;;;10495316;28;19920;-64
2021/05/18 13:06:43;;;;;;;;;;;23.40;40.70;;;;;;10491410;28;19977;-62
2021/05/18 13:17:05;;;;;;;;;;;23.50;40.00;;;;;;10492939;28;19920;-62
2021/05/18 13:22:06;;;;;;;;;;;23.20;40.70;;;;;;10494904;28;19999;-62
2021/05/18 13:27:08;;;;;;;;;;;23.00;41.90;;;;;;10493937;28;20371;-62
2021/05/18 13:32:10;;;;;;;;;;;23.10;42.80;;;;;;10494013;28;20444;-63
2021/05/18 13:37:11;;;;;;;;;;;23.40;42.00;;;;;;10494479;28;19920;-62
2021/05/18 13:42:12;;;;;;;;;;;23.30;41.00;;;;;;10492673;28;19989;-62
2021/05/18 13:47:14;;;;;;;;;;;22.60;41.00;;;;;;10493374;28;19970;-62
2021/05/18 13:52:15;;;;;;;;;;;22.40;42.30;;;;;;10493332;28;19927;-62
2021/05/18 13:57:16;;;;;;;;;;;22.50;42.10;;;;;;10493077;28;19927;-62
2021/05/18 14:02:18;;;;;;;;;;;22.70;40.90;;;;;;10492462;28;19924;-61
2021/05/18 14:07:51;;;;;;;;;;;22.50;41.30;;;;;;10492879;28;19925;-61
2021/05/18 14:12:52;;;;;;;;;;;22.40;42.00;;;;;;10491902;28;19920;-61
2021/05/18 14:17:54;;;;;;;;;;;22.20;42.40;;;;;;10491663;28;19924;-61
2021/05/18 14:22:55;;;;;;;;;;;22.10;41.60;;;;;;10492071;28;19930;-59
2021/05/18 14:27:56;;;;;;;;;;;22.10;41.10;;;;;;10492149;28;19920;-60
2021/05/18 14:32:58;;;;;;;;;;;22.00;40.80;;;;;;10491811;28;20015;-61
2021/05/18 14:38:04;;;;;;;;;;;21.60;41.60;;;;;;10491647;28;20264;-61
2021/05/18 14:43:18;;;;;;;;;;;21.50;41.10;;;;;;10492195;28;19924;-61
2021/05/18 14:53:38;;;;;;;;;;;21.40;41.70;;;;;;10490590;28;19924;-61
2021/05/18 14:53:59;;;;;;;;;;;21.10;42.60;;;;;;10490487;28;20284;-63
2021/05/18 14:59:00;;;;;;;;;;;21.00;43.10;;;;;;10491435;28;19931;-61
2021/05/18 15:04:02;;;;;;;;;;;20.90;44.90;;;;;;10490289;28;19938;-61
2021/05/18 15:09:04;;;;;;;;;;;20.80;43.40;;;;;;10491381;28;19924;-61
2021/05/18 15:14:05;;;;;;;;;;;20.40;44.20;;;;;;10490868;28;19920;-62
2021/05/18 15:19:09;;;;;;;;;;;20.50;44.80;;;;;;10490922;28;19924;-62
2021/05/18 15:24:11;;;;;;;;;;;20.40;43.50;;;;;;10490435;28;19925;-60
2021/05/18 15:29:12;;;;;;;;;;;20.20;45.00;;;;;;10491958;28;19927;-61
2021/05/18 15:34:14;;;;;;;;;;;19.90;44.90;;;;;;10499022;28;19930;-61
2021/05/18 15:39:15;;;;;;;;;;;19.60;45.10;;;;;;10498870;28;19934;-62
2021/05/18 15:44:17;;;;;;;;;;;19.70;45.10;;;;;;10498297;28;19920;-62
2021/05/18 15:49:18;;;;;;;;;;;19.60;44.30;;;;;;10495796;28;19921;-61
2021/05/18 15:54:20;;;;;;;;;;;19.50;44.40;;;;;;10498868;28;19935;-62
2021/05/18 15:59:21;;;;;;;;;;;19.30;45.60;;;;;;10499026;28;20276;-61
2021/05/18 16:04:23;;;;;;;;;;;19.20;45.60;;;;;;10497603;28;19960;-62
2021/05/18 16:09:25;;;;;;;;;;;19.20;45.20;;;;;;10497556;28;20364;-62
2021/05/18 16:14:26;;;;;;;;;;;19.00;45.80;;;;;;10497309;28;19920;-61
2021/05/18 16:19:28;;;;;;;;;;;19.00;46.60;;;;;;10497045;28;19920;-61
2021/05/18 16:24:33;;;;;;;;;;;18.40;46.90;;;;;;10496254;28;20667;-62
2021/05/18 16:29:34;;;;;;;;;;;18.20;47.20;;;;;;10495439;28;19931;-61
2021/05/18 16:34:36;;;;;;;;;;;18.20;47.70;;;;;;10495747;28;19938;-62
2021/05/18 16:39:37;;;;;;;;;;;18.00;48.90;;;;;;10495093;28;19925;-61
2021/05/18 16:44:38;;;;;;;;;;;17.80;49.60;;;;;;10494161;28;20013;-61
2021/05/18 16:49:40;;;;;;;;;;;17.60;50.10;;;;;;10495178;28;19924;-61
2021/05/18 16:54:42;;;;;;;;;;;17.40;51.20;;;;;;10495653;28;19921;-62
2021/05/18 16:59:43;;;;;;;;;;;17.10;52.00;;;;;;10494496;28;19920;-61
2021/05/18 17:04:45;;;;;;;;;;;17.00;52.30;;;;;;10496796;28;19931;-61
2021/05/18 17:09:46;;;;;;;;;;;16.70;51.70;;;;;;10496218;28;19973;-61
2021/05/18 17:14:48;;;;;;;;;;;16.50;52.90;;;;;;10496073;28;19928;-61
2021/05/18 17:19:50;;;;;;;;;;;16.30;53.70;;;;;;10496056;28;20364;-61
2021/05/18 17:24:51;;;;;;;;;;;16.20;54.90;;;;;;10495459;28;19927;-61
2021/05/18 17:29:52;;;;;;;;;;;16.00;56.10;;;;;;10495667;28;19981;-62
2021/05/18 17:34:54;;;;;;;;;;;15.90;57.10;;;;;;10494722;28;19949;-61
2021/05/18 17:39:55;;;;;;;;;;;15.80;56.90;;;;;;10494802;28;19927;-61
2021/05/18 17:45:01;;;;;;;;;;;15.60;57.50;;;;;;10494801;28;20283;-60
2021/05/18 17:50:04;;;;;;;;;;;15.50;59.00;;;;;;10495613;28;19939;-61
2021/05/18 17:55:05;;;;;;;;;;;15.30;58.20;;;;;;10494209;28;19931;-60
2021/05/18 18:00:07;;;;;;;;;;;15.00;59.30;;;;;;10493440;28;20030;-62
2021/05/18 18:05:10;;;;;;;;;;;14.60;61.00;;;;;;10494639;28;19924;-62
2021/05/18 18:10:13;;;;;;;;;;;14.40;62.80;;;;;;10494468;28;19920;-61
2021/05/18 18:15:16;;;;;;;;;;;14.20;63.60;;;;;;10492987;28;20011;-60
2021/05/18 18:20:18;;;;;;;;;;;14.20;63.90;;;;;;10489767;28;19928;-63
2021/05/18 18:25:20;;;;;;;;;;;14.10;64.80;;;;;;10492864;28;20435;-60
2021/05/18 18:30:21;;;;;;;;;;;14.10;65.50;;;;;;10492810;28;19954;-61
2021/05/18 18:35:23;;;;;;;;;;;14.00;65.70;;;;;;10492568;28;20030;-59
2021/05/18 18:40:25;;;;;;;;;;;14.00;66.50;;;;;;10491997;28;20015;-61
2021/05/18 18:45:26;;;;;;;;;;;13.90;66.70;;;;;;10493745;28;20012;-61
2021/05/18 18:50:30;;;;;;;;;;;13.30;68.50;;;;;;10493764;28;19978;-63
2021/05/18 18:55:31;;;;;;;;;;;13.60;69.10;;;;;;10492857;28;20018;-62
2021/05/18 19:00:33;;;;;;;;;;;13.40;72.00;;;;;;10492112;28;20418;-60
2021/05/18 19:05:45;;;;;;;;;;;12.70;73.50;;;;;;10492498;28;20019;-60
2021/05/18 19:11:05;;;;;;;;;;;13.00;75.80;;;;;;10490613;28;20027;-61
2021/05/18 19:16:07;;;;;;;;;;;12.80;78.30;;;;;;10491721;28;19978;-60
2021/05/18 19:21:09;;;;;;;;;;;12.60;80.60;;;;;;10492734;28;20465;-60
2021/05/18 19:26:11;;;;;;;;;;;12.40;81.20;;;;;;10494164;28;20003;-60
2021/05/18 19:31:12;;;;;;;;;;;12.20;82.40;;;;;;10494598;28;19973;-60
2021/05/18 19:41:50;;;;;;;;;;;12.00;83.80;;;;;;10446224;28;19924;-60
2021/05/18 19:52:12;;;;;;;;;;;11.80;88.00;;;;;;10493009;28;19928;-62
2021/05/18 19:57:16;;;;;;;;;;;11.70;87.20;;;;;;10491122;28;19971;-60
2021/05/18 20:23:36;;;;;;;;;;;11.50;90.20;;;;;;10498683;28;20381;-60
2021/05/18 20:28:38;;;;;;;;;;;10.20;91.60;;;;;;10499235;28;19952;-60
2021/05/18 20:33:47;;;;;;;;;;;11.50;91.70;;;;;;10499731;28;19924;-60
2021/05/18 20:38:57;;;;;;;;;;;11.40;92.10;;;;;;10499657;28;19921;-61
2021/05/18 20:44:00;;;;;;;;;;;11.40;92.80;;;;;;10500102;28;19928;-60
2021/05/18 20:49:01;;;;;;;;;;;11.40;94.10;;;;;;10500326;28;19974;-60
2021/05/18 20:54:04;;;;;;;;;;;11.30;95.00;;;;;;10500029;28;19990;-60
2021/05/18 20:59:06;;;;;;;;;;;11.30;95.60;;;;;;10501466;28;19921;-60
2021/05/18 21:04:07;;;;;;;;;;;11.20;95.80;;;;;;10499548;28;20007;-60
2021/05/18 21:09:15;;;;;;;;;;;11.10;96.90;;;;;;10499406;28;19986;-60
2021/05/18 21:19:47;;;;;;;;;;;11.00;97.20;;;;;;10397081;28;19924;-60
2021/05/18 21:24:49;;;;;;;;;;;10.80;97.10;;;;;;10500496;28;20387;-60
2021/05/18 21:29:50;;;;;;;;;;;10.80;97.70;;;;;;10500115;28;19920;-60
2021/05/18 21:34:51;;;;;;;;;;;10.80;98.30;;;;;;10500146;28;20050;-60
2021/05/18 21:39:56;;;;;;;;;;;10.80;99.70;;;;;;10498465;28;20273;-60
2021/05/18 21:44:57;;;;;;;;;;;10.80;99.90;;;;;;10496364;28;19926;-61
2021/05/18 21:49:58;;;;;;;;;;;10.60;99.90;;;;;;10498940;28;19926;-60
2021/05/18 21:55:00;;;;;;;;;;;10.50;99.90;;;;;;10498284;28;19960;-61
2021/05/18 22:00:12;;;;;;;;;;;10.50;99.90;;;;;;10496941;28;19924;-60
2021/05/18 22:05:14;;;;;;;;;;;10.50;99.90;;;;;;10495322;28;19931;-61
2021/05/18 22:10:20;;;;;;;;;;;10.40;99.90;;;;;;10495668;28;19956;-60
2021/05/18 22:15:41;;;;;;;;;;;10.40;99.90;;;;;;10495489;28;19978;-60
2021/05/18 22:26:07;;;;;;;;;;;10.30;99.90;;;;;;10494959;28;19932;-60
2021/05/18 22:31:08;;;;;;;;;;;10.30;99.90;;;;;;10495781;28;19927;-61
2021/05/18 22:36:09;;;;;;;;;;;10.40;99.90;;;;;;10495710;28;19924;-60
2021/05/18 22:41:12;;;;;;;;;;;10.50;99.90;;;;;;10495376;28;19930;-60
2021/05/18 22:46:13;;;;;;;;;;;10.50;99.90;;;;;;10495904;28;19938;-60
2021/05/18 22:51:14;;;;;;;;;;;10.50;99.90;;;;;;10495836;28;19924;-60
2021/05/18 22:56:16;;;;;;;;;;;10.60;99.90;;;;;;10495631;28;19961;-60
2021/05/18 23:01:17;;;;;;;;;;;10.60;99.90;;;;;;10495107;28;19985;-60
2021/05/18 23:06:18;;;;;;;;;;;10.70;99.90;;;;;;10495503;28;19927;-60
2021/05/18 23:11:20;;;;;;;;;;;10.70;99.90;;;;;;10495308;28;19931;-60
2021/05/18 23:16:21;;;;;;;;;;;10.80;99.90;;;;;;10490243;28;19928;-61
2021/05/18 23:21:22;;;;;;;;;;;10.80;99.90;;;;;;10489746;28;20011;-61
2021/05/18 23:26:24;;;;;;;;;;;10.80;99.90;;;;;;10491205;28;20039;-60
2021/05/18 23:31:26;;;;;;;;;;;10.90;99.90;;;;;;10492913;28;19928;-61
2021/05/18 23:36:27;;;;;;;;;;;11.00;99.90;;;;;;10493222;28;19966;-60
2021/05/18 23:41:29;;;;;;;;;;;11.10;99.90;;;;;;10493284;28;19935;-61
2021/05/18 23:46:30;;;;;;;;;;;11.20;99.90;;;;;;10493182;28;19969;-60
2021/05/18 23:51:31;;;;;;;;;;;11.20;99.90;;;;;;10497585;28;20402;-61
2021/05/18 23:56:33;;;;;;;;;;;11.10;99.90;;;;;;10502125;28;20291;-60
